createdAt,value
2024-01-03T00:00:44.175Z,8.7
2024-01-03T00:02:00.476Z,8.7
2024-01-03T00:03:16.752Z,8.7
2024-01-03T00:04:33.051Z,8.7
2024-01-03T00:05:49.345Z,8.6
2024-01-03T00:07:05.644Z,8.6
2024-01-03T00:08:21.944Z,8.6
2024-01-03T00:09:38.228Z,8.6
2024-01-03T00:10:53.551Z,8.6
2024-01-03T00:12:09.836Z,8.6
2024-01-03T00:13:26.126Z,8.6
2024-01-03T00:14:42.436Z,8.6
2024-01-03T00:15:58.721Z,8.6
2024-01-03T00:17:15.022Z,8.6
2024-01-03T00:18:31.303Z,8.6
2024-01-03T00:19:47.603Z,8.7
2024-01-03T00:21:03.898Z,8.7
2024-01-03T00:22:20.204Z,8.7
2024-01-03T00:23:36.490Z,8.7
2024-01-03T00:24:52.783Z,8.7
2024-01-03T00:26:09.083Z,8.7
2024-01-03T00:27:24.392Z,8.8
2024-01-03T00:28:40.680Z,8.8
2024-01-03T00:29:56.974Z,8.8
2024-01-03T00:31:13.277Z,8.8
2024-01-03T00:32:29.572Z,8.8
2024-01-03T00:35:02.163Z,8.8
2024-01-03T00:36:18.451Z,8.8
2024-01-03T00:37:34.753Z,8.8
2024-01-03T00:38:51.047Z,8.8
2024-01-03T00:40:07.335Z,8.8
2024-01-03T00:41:23.639Z,8.8
2024-01-03T00:42:39.923Z,8.8
2024-01-03T00:43:55.234Z,8.8
2024-01-03T00:45:11.530Z,8.8
2024-01-03T00:46:27.814Z,8.8
2024-01-03T00:47:44.116Z,8.8
2024-01-03T00:49:00.406Z,8.8
2024-01-03T00:50:16.703Z,8.8
2024-01-03T00:51:32.999Z,8.8
2024-01-03T00:52:49.322Z,8.7
2024-01-03T00:54:05.588Z,8.8
2024-01-03T00:55:21.893Z,8.7
2024-01-03T00:56:38.175Z,8.7
2024-01-03T00:57:54.468Z,8.7
2024-01-03T00:59:10.761Z,8.7
2024-01-03T01:00:26.067Z,8.7
2024-01-03T01:01:42.369Z,8.7
2024-01-03T01:02:58.665Z,8.7
2024-01-03T01:04:14.967Z,8.7
2024-01-03T01:05:31.259Z,8.7
2024-01-03T01:06:47.000Z,8.7
2024-01-03T01:08:03.834Z,8.7
2024-01-03T01:09:20.126Z,8.7
2024-01-03T01:10:36.453Z,8.7
2024-01-03T01:11:52.725Z,8.7
2024-01-03T01:13:09.018Z,8.7
2024-01-03T01:14:25.310Z,8.7
2024-01-03T01:15:41.600Z,8.7
2024-01-03T01:16:56.918Z,8.7
2024-01-03T01:18:13.223Z,8.7
2024-01-03T01:19:29.502Z,8.7
2024-01-03T01:20:45.794Z,8.7
2024-01-03T01:22:02.094Z,8.6
2024-01-03T01:23:18.388Z,8.7
2024-01-03T01:24:34.677Z,8.6
2024-01-03T01:25:50.978Z,8.6
2024-01-03T01:27:07.280Z,8.6
2024-01-03T01:28:23.579Z,8.6
2024-01-03T01:29:39.862Z,8.6
2024-01-03T01:30:56.155Z,8.6
2024-01-03T01:32:12.447Z,8.6
2024-01-03T01:33:27.770Z,8.7
2024-01-03T01:34:44.052Z,8.7
2024-01-03T01:36:00.360Z,8.7
2024-01-03T01:37:16.660Z,8.7
2024-01-03T01:38:32.949Z,8.8
2024-01-03T01:39:49.238Z,8.8
2024-01-03T01:41:05.531Z,8.8
2024-01-03T01:42:21.844Z,8.8
2024-01-03T01:43:38.125Z,8.8
2024-01-03T01:44:54.434Z,8.9
2024-01-03T01:46:10.713Z,8.9
2024-01-03T01:47:27.009Z,8.9
2024-01-03T01:48:43.311Z,8.9
2024-01-03T01:49:58.626Z,8.9
2024-01-03T01:51:14.913Z,9
2024-01-03T01:52:31.209Z,9
2024-01-03T01:53:47.509Z,9
2024-01-03T01:55:03.792Z,9
2024-01-03T01:56:20.093Z,9
2024-01-03T01:57:36.386Z,9.1
2024-01-03T01:58:52.679Z,9.1
2024-01-03T02:00:08.982Z,9.1
2024-01-03T02:01:25.269Z,9.1
2024-01-03T02:02:41.563Z,9.1
2024-01-03T02:03:57.859Z,9.1
2024-01-03T02:05:14.149Z,9.2
2024-01-03T02:06:29.464Z,9.1
2024-01-03T02:07:45.767Z,9.2
2024-01-03T02:09:02.048Z,9.2
2024-01-03T02:10:18.352Z,9.2
2024-01-03T02:11:34.648Z,9.2
2024-01-03T02:12:50.932Z,9.3
2024-01-03T02:14:07.223Z,9.3
2024-01-03T02:15:23.520Z,9.3
2024-01-03T02:16:39.814Z,9.3
2024-01-03T02:17:56.118Z,9.3
2024-01-03T02:19:12.405Z,9.4
2024-01-03T02:20:28.709Z,9.4
2024-01-03T02:21:44.994Z,9.4
2024-01-03T02:23:00.317Z,9.4
2024-01-03T02:24:16.606Z,9.4
2024-01-03T02:25:32.903Z,9.4
2024-01-03T02:26:49.199Z,9.4
2024-01-03T02:28:05.498Z,9.4
2024-01-03T02:29:21.778Z,9.4
2024-01-03T02:30:38.086Z,9.4
2024-01-03T02:31:54.366Z,9.4
2024-01-03T02:33:10.658Z,9.5
2024-01-03T02:34:26.962Z,9.5
2024-01-03T02:35:43.243Z,9.5
2024-01-03T02:36:59.541Z,9.5
2024-01-03T02:38:15.838Z,9.5
2024-01-03T02:39:31.147Z,9.5
2024-01-03T02:40:47.440Z,9.5
2024-01-03T02:42:03.733Z,9.5
2024-01-03T02:43:20.034Z,9.5
2024-01-03T02:44:36.326Z,9.5
2024-01-03T02:45:52.621Z,9.5
2024-01-03T02:47:08.927Z,9.5
2024-01-03T02:48:25.215Z,9.5
2024-01-03T02:49:41.499Z,9.5
2024-01-03T02:50:57.791Z,9.4
2024-01-03T02:52:14.084Z,9.4
2024-01-03T02:53:30.387Z,9.4
2024-01-03T02:54:46.689Z,9.4
2024-01-03T02:56:01.984Z,9.4
2024-01-03T02:57:18.306Z,9.4
2024-01-03T02:58:34.582Z,9.4
2024-01-03T02:59:50.871Z,9.4
2024-01-03T03:01:07.177Z,9.4
2024-01-03T03:02:23.469Z,9.4
2024-01-03T03:03:39.749Z,9.4
2024-01-03T03:04:56.061Z,9.3
2024-01-03T03:06:12.361Z,9.3
2024-01-03T03:07:28.642Z,9.3
2024-01-03T03:08:44.940Z,9.3
2024-01-03T03:10:01.243Z,9.3
2024-01-03T03:11:17.523Z,9.2
2024-01-03T03:12:33.831Z,9.2
2024-01-03T03:13:49.141Z,9.1
2024-01-03T03:15:05.430Z,9.1
2024-01-03T03:16:21.720Z,9.1
2024-01-03T03:17:38.025Z,9.1
2024-01-03T03:18:54.316Z,9.1
2024-01-03T03:20:10.606Z,9.1
2024-01-03T03:21:26.891Z,9.1
2024-01-03T03:22:43.195Z,9.1
2024-01-03T03:23:59.487Z,9.2
2024-01-03T03:25:15.781Z,9.2
2024-01-03T03:26:32.079Z,9.3
2024-01-03T03:27:48.361Z,9.3
2024-01-03T03:29:04.655Z,9.3
2024-01-03T03:30:19.978Z,9.3
2024-01-03T03:31:36.280Z,9.4
2024-01-03T03:32:52.557Z,9.4
2024-01-03T03:34:08.867Z,9.4
2024-01-03T03:35:25.158Z,9.4
2024-01-03T03:36:41.453Z,9.5
2024-01-03T03:37:57.746Z,9.5
2024-01-03T03:39:14.036Z,9.5
2024-01-03T03:40:30.324Z,9.5
2024-01-03T03:41:46.632Z,9.5
2024-01-03T03:43:02.923Z,9.5
2024-01-03T03:44:19.221Z,9.5
2024-01-03T03:45:35.510Z,9.6
2024-01-03T03:46:50.829Z,9.6
2024-01-03T03:48:07.106Z,9.6
2024-01-03T03:49:23.414Z,9.6
2024-01-03T03:50:39.708Z,9.6
2024-01-03T03:51:55.996Z,9.6
2024-01-03T03:53:11.317Z,9.6
2024-01-03T03:54:27.607Z,9.5
2024-01-03T03:55:43.901Z,9.5
2024-01-03T03:57:00.191Z,9.5
2024-01-03T03:58:16.486Z,9.5
2024-01-03T03:59:32.779Z,9.5
2024-01-03T04:00:49.086Z,9.5
2024-01-03T04:02:05.380Z,9.5
2024-01-03T04:03:21.666Z,9.5
2024-01-03T04:04:37.951Z,9.5
2024-01-03T04:05:54.249Z,9.5
2024-01-03T04:07:10.558Z,9.5
2024-01-03T04:08:26.850Z,9.5
2024-01-03T04:09:42.164Z,9.5
2024-01-03T04:10:58.458Z,9.5
2024-01-03T04:12:14.734Z,9.5
2024-01-03T04:13:31.038Z,9.5
2024-01-03T04:14:47.327Z,9.5
2024-01-03T04:16:03.636Z,9.5
2024-01-03T04:17:19.914Z,9.5
2024-01-03T04:18:36.221Z,9.5
2024-01-03T04:19:52.516Z,9.5
2024-01-03T04:21:08.827Z,9.5
2024-01-03T04:22:25.096Z,9.5
2024-01-03T04:23:41.393Z,9.5
2024-01-03T04:24:57.690Z,9.5
2024-01-03T04:26:12.989Z,9.5
2024-01-03T04:27:29.282Z,9.5
2024-01-03T04:28:45.594Z,9.4
2024-01-03T04:30:01.891Z,9.5
2024-01-03T04:31:18.169Z,9.4
2024-01-03T04:32:34.471Z,9.4
2024-01-03T04:33:50.758Z,9.4
2024-01-03T04:35:07.052Z,9.3
2024-01-03T04:36:23.357Z,9.3
2024-01-03T04:37:39.642Z,9.3
2024-01-03T04:38:55.935Z,9.2
2024-01-03T04:40:12.227Z,9.1
2024-01-03T04:41:28.535Z,9.1
2024-01-03T04:42:43.832Z,9.1
2024-01-03T04:44:00.142Z,9.1
2024-01-03T04:45:16.422Z,9.1
2024-01-03T04:46:32.725Z,9.1
2024-01-03T04:47:49.010Z,9.1
2024-01-03T04:49:05.323Z,9.1
2024-01-03T04:50:21.597Z,9.2
2024-01-03T04:51:37.895Z,9.2
2024-01-03T04:52:54.187Z,9.2
2024-01-03T04:54:10.510Z,9.3
2024-01-03T04:55:26.775Z,9.3
2024-01-03T04:56:43.085Z,9.3
2024-01-03T04:57:59.368Z,9.3
2024-01-03T04:59:14.694Z,9.4
2024-01-03T05:00:30.979Z,9.4
2024-01-03T05:01:47.271Z,9.4
2024-01-03T05:03:03.566Z,9.4
2024-01-03T05:04:19.855Z,9.3
2024-01-03T05:05:36.169Z,9.3
2024-01-03T05:06:52.464Z,9.3
2024-01-03T05:08:08.752Z,9.3
2024-01-03T05:09:25.034Z,9.3
2024-01-03T05:10:41.336Z,9.3
2024-01-03T05:11:57.636Z,9.3
2024-01-03T05:13:13.920Z,9.3
2024-01-03T05:14:30.228Z,9.2
2024-01-03T05:15:45.527Z,9.2
2024-01-03T05:17:01.819Z,9.1
2024-01-03T05:18:18.111Z,9.1
2024-01-03T05:19:34.419Z,9.1
2024-01-03T05:20:50.701Z,9.1
2024-01-03T05:22:07.000Z,9.1
2024-01-03T05:23:23.300Z,9.1
2024-01-03T05:24:39.584Z,9.1
2024-01-03T05:25:55.886Z,9.1
2024-01-03T05:27:12.173Z,9.2
2024-01-03T05:28:28.475Z,9.2
2024-01-03T05:29:44.772Z,9.2
2024-01-03T05:31:01.063Z,9.2
2024-01-03T05:32:16.385Z,9.2
2024-01-03T05:33:32.669Z,9.2
2024-01-03T05:34:48.966Z,9.2
2024-01-03T05:36:05.260Z,9.1
2024-01-03T05:37:21.576Z,9.1
2024-01-03T05:38:37.849Z,9.2
2024-01-03T05:39:54.147Z,9.2
2024-01-03T05:41:10.446Z,9.2
2024-01-03T05:42:26.728Z,9.2
2024-01-03T05:43:43.037Z,9.1
2024-01-03T05:44:59.342Z,9.1
2024-01-03T05:46:15.610Z,9.1
2024-01-03T05:47:31.903Z,9.1
2024-01-03T05:48:47.232Z,9.1
2024-01-03T05:50:03.523Z,9.1
2024-01-03T05:51:19.811Z,9.1
2024-01-03T05:52:36.099Z,9.1
2024-01-03T05:53:52.390Z,9.1
2024-01-03T05:55:08.707Z,9.1
2024-01-03T05:56:24.985Z,9.1
2024-01-03T05:57:41.283Z,9.1
2024-01-03T05:58:57.579Z,9
2024-01-03T06:00:13.880Z,9
2024-01-03T06:01:30.173Z,9
2024-01-03T06:02:46.460Z,9
2024-01-03T06:04:02.761Z,9
2024-01-03T06:05:18.075Z,9
2024-01-03T06:06:34.355Z,9
2024-01-03T06:07:50.678Z,9
2024-01-03T06:09:06.958Z,9
2024-01-03T06:10:23.253Z,9
2024-01-03T06:11:39.542Z,9
2024-01-03T06:12:55.837Z,9.1
2024-01-03T06:14:12.123Z,9.1
2024-01-03T06:15:28.422Z,9.1
2024-01-03T06:16:44.724Z,9.1
2024-01-03T06:18:01.015Z,9.1
2024-01-03T06:19:17.304Z,9.1
2024-01-03T06:20:33.597Z,9.1
2024-01-03T06:21:48.919Z,9.1
2024-01-03T06:23:05.205Z,9.1
2024-01-03T06:24:21.510Z,9.1
2024-01-03T06:25:37.785Z,9.1
2024-01-03T06:26:54.094Z,9.1
2024-01-03T06:28:10.387Z,9.1
2024-01-03T06:29:26.682Z,9.1
2024-01-03T06:30:42.979Z,9.1
2024-01-03T06:31:59.261Z,9.2
2024-01-03T06:33:15.572Z,9.2
2024-01-03T06:34:31.867Z,9.2
2024-01-03T06:35:48.149Z,9.2
2024-01-03T06:37:04.456Z,9.2
2024-01-03T06:38:19.755Z,9.2
2024-01-03T06:39:36.046Z,9.3
2024-01-03T06:40:52.345Z,9.3
2024-01-03T06:42:08.646Z,9.2
2024-01-03T06:43:24.883Z,9.2
2024-01-03T06:44:41.177Z,9.2
2024-01-03T06:45:57.433Z,9.2
2024-01-03T06:47:13.721Z,9.2
2024-01-03T06:48:30.010Z,9.2
2024-01-03T06:49:46.320Z,9.2
2024-01-03T06:51:02.606Z,9.2
2024-01-03T06:52:18.914Z,9.1
2024-01-03T06:53:35.142Z,9.1
2024-01-03T06:54:50.416Z,9.1
2024-01-03T06:56:06.700Z,9.1
2024-01-03T06:57:22.999Z,9.1
2024-01-03T06:58:39.250Z,9.1
2024-01-03T06:59:55.491Z,9.1
2024-01-03T07:01:11.720Z,9.1
2024-01-03T07:02:27.964Z,9.1
2024-01-03T07:03:44.216Z,9.1
2024-01-03T07:05:00.443Z,9.1
2024-01-03T07:06:16.694Z,9.1
2024-01-03T07:07:32.941Z,9.1
2024-01-03T07:08:49.165Z,9.1
2024-01-03T07:10:05.408Z,9.1
2024-01-03T07:11:20.676Z,9.1
2024-01-03T07:12:36.908Z,9
2024-01-03T07:13:53.163Z,9
2024-01-03T07:15:09.403Z,9
2024-01-03T07:16:25.642Z,9
2024-01-03T07:17:41.871Z,9
2024-01-03T07:18:58.125Z,9.1
2024-01-03T07:20:14.353Z,9.1
2024-01-03T07:21:30.587Z,9.1
2024-01-03T07:22:46.831Z,9.1
2024-01-03T07:24:03.105Z,9.1
2024-01-03T07:25:19.327Z,9.1
2024-01-03T07:26:35.583Z,9.1
2024-01-03T07:27:50.813Z,9.1
2024-01-03T07:29:07.046Z,9.1
2024-01-03T07:30:23.287Z,9.1
2024-01-03T07:31:39.555Z,9.1
2024-01-03T07:32:55.784Z,9.1
2024-01-03T07:34:12.008Z,9.1
2024-01-03T07:35:28.265Z,9.1
2024-01-03T07:36:44.501Z,9.1
2024-01-03T07:38:00.746Z,9.1
2024-01-03T07:39:16.976Z,9.2
2024-01-03T07:40:33.212Z,9.2
2024-01-03T07:41:49.464Z,9.2
2024-01-03T07:43:05.695Z,9.3
2024-01-03T07:44:20.964Z,9.3
2024-01-03T07:45:37.226Z,9.3
2024-01-03T07:46:53.441Z,9.3
2024-01-03T07:48:09.672Z,9.3
2024-01-03T07:49:25.910Z,9.4
2024-01-03T07:50:42.154Z,9.4
2024-01-03T07:53:14.633Z,9.4
2024-01-03T07:54:30.904Z,9.4
2024-01-03T07:55:47.133Z,9.4
2024-01-03T07:57:03.358Z,9.4
2024-01-03T07:58:19.605Z,9.4
2024-01-03T07:59:35.841Z,9.4
2024-01-03T08:00:51.095Z,9.4
2024-01-03T08:02:07.336Z,9.4
2024-01-03T08:03:23.599Z,9.4
2024-01-03T08:04:39.815Z,9.4
2024-01-03T08:05:56.070Z,9.5
2024-01-03T08:07:12.293Z,9.5
2024-01-03T08:08:27.583Z,9.5
2024-01-03T08:09:43.794Z,9.5
2024-01-03T08:11:00.055Z,9.6
2024-01-03T08:12:16.275Z,9.6
2024-01-03T08:13:32.528Z,9.6
2024-01-03T08:14:48.792Z,9.7
2024-01-03T08:16:04.995Z,9.7
2024-01-03T08:17:21.248Z,9.7
2024-01-03T08:18:37.493Z,9.7
2024-01-03T08:19:53.724Z,9.7
2024-01-03T08:21:09.976Z,9.7
2024-01-03T08:22:26.198Z,9.7
2024-01-03T08:23:42.445Z,9.7
2024-01-03T08:24:57.713Z,9.7
2024-01-03T08:26:13.946Z,9.7
2024-01-03T08:27:30.180Z,9.7
2024-01-03T08:28:46.422Z,9.7
2024-01-03T08:30:02.662Z,9.7
2024-01-03T08:31:18.912Z,9.7
2024-01-03T08:32:35.144Z,9.7
2024-01-03T08:33:51.393Z,9.7
2024-01-03T08:35:07.630Z,9.8
2024-01-03T08:36:23.858Z,9.8
2024-01-03T08:37:40.108Z,9.9
2024-01-03T08:38:56.000Z,9.9
2024-01-03T08:40:12.587Z,9.9
2024-01-03T08:41:27.851Z,9.9
2024-01-03T08:42:44.085Z,9.9
2024-01-03T08:44:00.318Z,9.9
2024-01-03T08:45:16.571Z,10
2024-01-03T08:46:32.817Z,10
2024-01-03T08:47:49.043Z,10
2024-01-03T08:49:05.292Z,10
2024-01-03T08:50:21.524Z,10
2024-01-03T08:51:37.770Z,10.1
2024-01-03T08:52:54.009Z,10.1
2024-01-03T08:54:10.242Z,10
2024-01-03T08:55:26.000Z,10
2024-01-03T08:56:42.728Z,10.1
2024-01-03T08:57:57.980Z,10.1
2024-01-03T08:59:14.225Z,10.1
2024-01-03T09:00:30.465Z,10.1
2024-01-03T09:01:46.702Z,10.1
2024-01-03T09:03:02.944Z,10
2024-01-03T09:04:19.199Z,10
2024-01-03T09:05:35.443Z,10
2024-01-03T09:06:51.663Z,10
2024-01-03T09:08:07.929Z,10
2024-01-03T09:09:24.160Z,10
2024-01-03T09:10:40.385Z,10
2024-01-03T09:11:56.632Z,10
2024-01-03T09:13:12.870Z,10
2024-01-03T09:14:28.141Z,10
2024-01-03T09:15:44.375Z,10.1
2024-01-03T09:17:00.620Z,10.1
2024-01-03T09:18:16.869Z,10.1
2024-01-03T09:19:33.098Z,10.1
2024-01-03T09:20:49.337Z,10.1
2024-01-03T09:22:05.580Z,10.1
2024-01-03T09:23:21.819Z,10.1
2024-01-03T09:24:38.059Z,10.1
2024-01-03T09:25:54.290Z,10.1
2024-01-03T09:27:10.534Z,10.1
2024-01-03T09:28:26.769Z,10.2
2024-01-03T09:29:43.021Z,10.2
2024-01-03T09:30:58.278Z,10.3
2024-01-03T09:32:14.507Z,10.3
2024-01-03T09:33:30.758Z,10.4
2024-01-03T09:34:46.999Z,10.5
2024-01-03T09:36:03.257Z,10.6
2024-01-03T09:37:19.478Z,10.6
2024-01-03T09:38:35.707Z,10.7
2024-01-03T09:39:51.960Z,10.7
2024-01-03T09:41:08.227Z,10.7
2024-01-03T09:42:24.427Z,10.8
2024-01-03T09:43:40.685Z,10.8
2024-01-03T09:44:56.917Z,10.8
2024-01-03T09:46:13.159Z,10.8
2024-01-03T09:47:28.424Z,10.8
2024-01-03T09:48:44.663Z,10.8
2024-01-03T09:50:00.906Z,10.8
2024-01-03T09:51:17.137Z,10.8
2024-01-03T09:52:33.376Z,10.8
2024-01-03T09:55:05.873Z,10.8
2024-01-03T09:56:22.090Z,10.8
2024-01-03T09:57:38.345Z,10.8
2024-01-03T09:58:54.587Z,10.8
2024-01-03T10:00:10.818Z,10.8
2024-01-03T10:01:27.065Z,10.8
2024-01-03T10:02:43.306Z,10.8
2024-01-03T10:03:58.546Z,10.8
2024-01-03T10:05:14.792Z,10.8
2024-01-03T10:06:31.036Z,10.9
2024-01-03T10:07:47.302Z,10.9
2024-01-03T10:09:03.520Z,10.9
2024-01-03T10:10:19.754Z,10.9
2024-01-03T10:11:36.002Z,10.9
2024-01-03T10:12:52.242Z,10.9
2024-01-03T10:14:08.474Z,10.9
2024-01-03T10:15:24.717Z,10.9
2024-01-03T10:16:40.962Z,10.9
2024-01-03T10:17:57.196Z,10.9
2024-01-03T10:19:13.440Z,10.9
2024-01-03T10:20:28.702Z,10.9
2024-01-03T10:21:44.938Z,10.9
2024-01-03T10:23:01.181Z,10.9
2024-01-03T10:24:17.419Z,10.9
2024-01-03T10:25:33.663Z,10.9
2024-01-03T10:26:49.901Z,10.9
2024-01-03T10:28:06.148Z,10.9
2024-01-03T10:29:22.388Z,10.9
2024-01-03T10:30:38.618Z,10.9
2024-01-03T10:31:54.864Z,11
2024-01-03T10:33:11.108Z,11
2024-01-03T10:34:27.371Z,11
2024-01-03T10:35:43.584Z,11.1
2024-01-03T10:36:58.847Z,11.1
2024-01-03T10:38:15.072Z,11.2
2024-01-03T10:39:31.317Z,11.2
2024-01-03T10:40:47.553Z,11.2
2024-01-03T10:42:03.800Z,11.3
2024-01-03T10:43:20.033Z,11.4
2024-01-03T10:44:36.275Z,11.4
2024-01-03T10:45:52.522Z,11.4
2024-01-03T10:47:08.793Z,11.4
2024-01-03T10:48:25.008Z,11.4
2024-01-03T10:49:41.235Z,11.4
2024-01-03T10:50:57.495Z,11.4
2024-01-03T10:52:13.718Z,11.4
2024-01-03T10:53:28.977Z,11.4
2024-01-03T10:54:45.216Z,11.4
2024-01-03T10:56:01.483Z,11.4
2024-01-03T10:57:17.709Z,11.4
2024-01-03T10:58:33.960Z,11.4
2024-01-03T10:59:50.197Z,11.3
2024-01-03T11:01:06.422Z,11.3
2024-01-03T11:02:22.700Z,11.3
2024-01-03T11:03:38.902Z,11.3
2024-01-03T11:04:55.156Z,11.3
2024-01-03T11:06:11.392Z,11.3
2024-01-03T11:07:27.631Z,11.3
2024-01-03T11:08:43.867Z,11.4
2024-01-03T11:09:59.131Z,11.4
2024-01-03T11:11:15.359Z,11.3
2024-01-03T11:12:31.599Z,11.3
2024-01-03T11:13:47.849Z,11.3
2024-01-03T11:15:04.082Z,11.3
2024-01-03T11:16:20.328Z,11.3
2024-01-03T11:17:36.556Z,11.3
2024-01-03T11:18:52.801Z,11.3
2024-01-03T11:20:09.057Z,11.2
2024-01-03T11:21:25.299Z,11.3
2024-01-03T11:22:41.537Z,11.3
2024-01-03T11:23:57.765Z,11.3
2024-01-03T11:25:14.019Z,11.3
2024-01-03T11:26:29.255Z,11.3
2024-01-03T11:27:45.511Z,11.3
2024-01-03T11:29:01.747Z,11.3
2024-01-03T11:30:17.990Z,11.3
2024-01-03T11:31:34.221Z,11.2
2024-01-03T11:32:50.461Z,11.2
2024-01-03T11:34:06.714Z,11.2
2024-01-03T11:35:22.947Z,11.3
2024-01-03T11:36:39.188Z,11.3
2024-01-03T11:37:55.428Z,11.3
2024-01-03T11:39:11.662Z,11.4
2024-01-03T11:40:27.911Z,11.4
2024-01-03T11:41:44.141Z,11.4
2024-01-03T11:42:59.414Z,11.5
2024-01-03T11:44:15.638Z,11.5
2024-01-03T11:45:31.898Z,11.6
2024-01-03T11:46:48.119Z,11.6
2024-01-03T11:48:04.380Z,11.6
2024-01-03T11:49:20.618Z,11.5
2024-01-03T11:50:36.840Z,11.5
2024-01-03T11:51:53.089Z,11.5
2024-01-03T11:53:09.340Z,11.6
2024-01-03T11:54:25.576Z,11.6
2024-01-03T11:55:41.818Z,11.6
2024-01-03T11:56:58.056Z,11.6
2024-01-03T11:58:14.288Z,11.6
2024-01-03T12:00:45.799Z,11.7
2024-01-03T12:02:02.036Z,11.7
2024-01-03T12:03:18.278Z,11.6
2024-01-03T12:04:34.513Z,11.7
2024-01-03T12:05:50.757Z,11.6
2024-01-03T12:07:06.992Z,11.6
2024-01-03T12:08:23.231Z,11.6
2024-01-03T12:09:39.466Z,11.6
2024-01-03T12:10:55.710Z,11.6
2024-01-03T12:12:11.948Z,11.7
2024-01-03T12:13:28.187Z,11.6
2024-01-03T12:14:44.430Z,11.6
2024-01-03T12:15:59.697Z,11.6
2024-01-03T12:17:15.933Z,11.6
2024-01-03T12:18:32.165Z,11.6
2024-01-03T12:19:48.411Z,11.5
2024-01-03T12:21:04.654Z,11.5
2024-01-03T12:22:20.904Z,11.5
2024-01-03T12:23:36.152Z,11.5
2024-01-03T12:24:52.390Z,11.5
2024-01-03T12:26:08.642Z,11.5
2024-01-03T12:27:24.869Z,11.4
2024-01-03T12:28:41.107Z,11.4
2024-01-03T12:29:57.366Z,11.4
2024-01-03T12:31:13.599Z,11.4
2024-01-03T12:32:29.848Z,11.4
2024-01-03T12:33:46.077Z,11.4
2024-01-03T12:35:02.324Z,11.4
2024-01-03T12:36:18.565Z,11.3
2024-01-03T12:37:34.792Z,11.4
2024-01-03T12:38:51.049Z,11.3
2024-01-03T12:40:06.287Z,11.3
2024-01-03T12:41:22.530Z,11.2
2024-01-03T12:42:38.786Z,11.3
2024-01-03T12:43:55.022Z,11.3
2024-01-03T12:45:11.262Z,11.2
2024-01-03T12:46:27.503Z,11.2
2024-01-03T12:47:43.740Z,11.2
2024-01-03T12:48:59.987Z,11.2
2024-01-03T12:50:16.211Z,11.1
2024-01-03T12:51:32.465Z,11.1
2024-01-03T12:52:48.693Z,11.2
2024-01-03T12:54:04.940Z,11.1
2024-01-03T12:55:21.188Z,11.1
2024-01-03T12:56:36.447Z,11.1
2024-01-03T12:57:52.679Z,11.1
2024-01-03T12:59:08.923Z,11.1
2024-01-03T13:01:41.402Z,11.1
2024-01-03T13:02:57.638Z,11
2024-01-03T13:04:13.886Z,11.1
2024-01-03T13:05:30.132Z,11.1
2024-01-03T13:06:46.359Z,11.1
2024-01-03T13:08:02.602Z,11.1
2024-01-03T13:09:18.837Z,11.1
2024-01-03T13:10:35.083Z,11.1
2024-01-03T13:11:51.335Z,11.1
2024-01-03T13:13:06.585Z,11.1
2024-01-03T13:14:22.829Z,11
2024-01-03T13:15:39.058Z,11.1
2024-01-03T13:16:55.294Z,11.1
2024-01-03T13:18:11.547Z,11.1
2024-01-03T13:19:27.782Z,11.1
2024-01-03T13:20:44.019Z,11
2024-01-03T13:22:00.257Z,11
2024-01-03T13:23:16.514Z,11
2024-01-03T13:24:32.752Z,11
2024-01-03T13:25:48.992Z,11
2024-01-03T13:27:05.234Z,11
2024-01-03T13:28:21.472Z,11
2024-01-03T13:29:36.717Z,11
2024-01-03T13:30:52.960Z,11
2024-01-03T13:32:09.216Z,11
2024-01-03T13:33:25.451Z,11
2024-01-03T13:34:41.688Z,11
2024-01-03T13:35:57.919Z,11
2024-01-03T13:37:14.162Z,11
2024-01-03T13:38:30.413Z,11
2024-01-03T13:39:46.657Z,11
2024-01-03T13:41:02.886Z,11
2024-01-03T13:42:19.129Z,11.1
2024-01-03T13:43:35.366Z,11
2024-01-03T13:44:51.608Z,11
2024-01-03T13:46:06.861Z,11
2024-01-03T13:47:23.108Z,11
2024-01-03T13:48:39.349Z,11
2024-01-03T13:49:55.582Z,11
2024-01-03T13:51:11.827Z,11
2024-01-03T13:52:28.074Z,11
2024-01-03T13:53:44.320Z,11
2024-01-03T13:55:00.556Z,11
2024-01-03T13:56:16.794Z,11
2024-01-03T13:57:33.038Z,11
2024-01-03T13:58:49.274Z,11
2024-01-03T14:00:05.517Z,11
2024-01-03T14:01:21.762Z,11
2024-01-03T14:02:37.009Z,11
2024-01-03T14:03:53.241Z,11
2024-01-03T14:05:09.499Z,11
2024-01-03T14:06:25.733Z,11
2024-01-03T14:07:41.986Z,11
2024-01-03T14:08:58.219Z,11
2024-01-03T14:10:14.461Z,11.1
2024-01-03T14:11:30.686Z,11.1
2024-01-03T14:12:46.929Z,11.1
2024-01-03T14:14:03.180Z,11.1
2024-01-03T14:15:19.418Z,11.1
2024-01-03T14:16:35.653Z,11.1
2024-01-03T14:17:51.898Z,11.2
2024-01-03T14:19:07.160Z,11.2
2024-01-03T14:20:23.384Z,11.2
2024-01-03T14:21:39.640Z,11.2
2024-01-03T14:22:55.878Z,11.2
2024-01-03T14:24:12.102Z,11.2
2024-01-03T14:25:28.359Z,11.3
2024-01-03T14:26:44.597Z,11.2
2024-01-03T14:28:00.841Z,11.2
2024-01-03T14:29:17.090Z,11.3
2024-01-03T14:30:33.318Z,11.3
2024-01-03T14:31:49.554Z,11.3
2024-01-03T14:33:05.790Z,11.3
2024-01-03T14:34:22.040Z,11.3
2024-01-03T14:35:37.287Z,11.3
2024-01-03T14:36:53.530Z,11.2
2024-01-03T14:38:09.778Z,11.2
2024-01-03T14:39:26.004Z,11.2
2024-01-03T14:40:42.250Z,11.2
2024-01-03T14:41:58.502Z,11.1
2024-01-03T14:43:14.732Z,11.1
2024-01-03T14:44:30.978Z,11.1
2024-01-03T14:45:47.214Z,11.2
2024-01-03T14:47:03.460Z,11.1
2024-01-03T14:48:19.689Z,11.1
2024-01-03T14:49:35.931Z,11.1
2024-01-03T14:50:52.175Z,11.2
2024-01-03T14:52:07.436Z,11.2
2024-01-03T14:53:23.677Z,11.2
2024-01-03T14:54:39.913Z,11.2
2024-01-03T14:55:56.161Z,11.2
2024-01-03T14:57:12.402Z,11.2
2024-01-03T14:58:28.638Z,11.2
2024-01-03T14:59:44.877Z,11.2
2024-01-03T15:01:01.129Z,11.2
2024-01-03T15:02:17.369Z,11.1
2024-01-03T15:03:33.613Z,11.1
2024-01-03T15:04:49.829Z,11.1
2024-01-03T15:06:06.089Z,11.1
2024-01-03T15:07:22.329Z,11.1
2024-01-03T15:08:37.586Z,11.1
2024-01-03T15:09:53.814Z,11.1
2024-01-03T15:11:10.055Z,11
2024-01-03T15:12:26.289Z,11
2024-01-03T15:13:42.528Z,11
2024-01-03T15:14:58.778Z,11
2024-01-03T15:16:15.023Z,11
2024-01-03T15:17:31.251Z,11
2024-01-03T15:18:47.495Z,11
2024-01-03T15:20:03.745Z,11
2024-01-03T15:21:19.983Z,11
2024-01-03T15:22:36.224Z,11
2024-01-03T15:23:52.469Z,11
2024-01-03T15:25:07.708Z,11
2024-01-03T15:26:23.967Z,11
2024-01-03T15:27:40.203Z,10.9
2024-01-03T15:28:56.436Z,10.9
2024-01-03T15:30:12.676Z,10.9
2024-01-03T15:31:28.911Z,11
2024-01-03T15:32:45.172Z,11
2024-01-03T15:34:01.396Z,10.9
2024-01-03T15:35:17.639Z,10.9
2024-01-03T15:36:33.934Z,11
2024-01-03T15:37:50.227Z,11
2024-01-03T15:39:06.546Z,10.9
2024-01-03T15:40:22.815Z,10.9
2024-01-03T15:41:38.124Z,10.9
2024-01-03T15:42:54.428Z,10.9
2024-01-03T15:44:10.727Z,10.9
2024-01-03T15:45:27.008Z,10.9
2024-01-03T15:46:43.314Z,10.8
2024-01-03T15:47:59.596Z,10.9
2024-01-03T15:49:15.894Z,10.8
2024-01-03T15:50:32.191Z,10.8
2024-01-03T15:51:48.494Z,10.8
2024-01-03T15:53:04.793Z,10.7
2024-01-03T15:54:21.067Z,10.7
2024-01-03T15:55:37.367Z,10.7
2024-01-03T15:56:53.676Z,10.7
2024-01-03T15:58:08.968Z,10.6
2024-01-03T15:59:25.273Z,10.6
2024-01-03T16:00:41.562Z,10.6
2024-01-03T16:01:57.862Z,10.6
2024-01-03T16:03:14.150Z,10.6
2024-01-03T16:04:30.447Z,10.6
2024-01-03T16:05:46.735Z,10.6
2024-01-03T16:07:03.040Z,10.6
2024-01-03T16:08:19.355Z,10.6
2024-01-03T16:09:35.635Z,10.6
2024-01-03T16:10:51.936Z,10.6
2024-01-03T16:12:08.223Z,10.5
2024-01-03T16:13:24.518Z,10.6
2024-01-03T16:14:39.822Z,10.6
2024-01-03T16:15:56.111Z,10.5
2024-01-03T16:17:12.404Z,10.5
2024-01-03T16:18:28.707Z,10.5
2024-01-03T16:19:44.999Z,10.5
2024-01-03T16:21:01.297Z,10.4
2024-01-03T16:22:17.596Z,10.4
2024-01-03T16:23:33.873Z,10.4
2024-01-03T16:24:50.170Z,10.4
2024-01-03T16:26:06.480Z,10.4
2024-01-03T16:27:22.757Z,10.4
2024-01-03T16:28:39.053Z,10.4
2024-01-03T16:29:55.352Z,10.3
2024-01-03T16:32:26.970Z,10.3
2024-01-03T16:33:43.264Z,10.3
2024-01-03T16:34:59.551Z,10.3
2024-01-03T16:36:15.851Z,10.3
2024-01-03T16:37:32.147Z,10.2
2024-01-03T16:38:47.444Z,10.2
2024-01-03T16:40:03.755Z,10.2
2024-01-03T16:41:20.048Z,10.2
2024-01-03T16:42:36.336Z,10.2
2024-01-03T16:43:52.638Z,10.1
2024-01-03T16:45:08.931Z,10.1
2024-01-03T16:46:25.224Z,10.1
2024-01-03T16:47:41.513Z,10.1
2024-01-03T16:48:57.816Z,10.1
2024-01-03T16:50:14.095Z,10.1
2024-01-03T16:51:30.399Z,10
2024-01-03T16:52:46.685Z,10
2024-01-03T16:54:02.990Z,10
2024-01-03T16:55:18.304Z,10
2024-01-03T16:56:34.593Z,10
2024-01-03T16:57:50.897Z,10
2024-01-03T16:59:07.186Z,10
2024-01-03T17:00:23.470Z,10
2024-01-03T17:01:39.768Z,10
2024-01-03T17:02:56.067Z,10
2024-01-03T17:04:12.363Z,10.1
2024-01-03T17:05:28.000Z,10.1
2024-01-03T17:06:44.945Z,10
2024-01-03T17:08:01.235Z,10.1
2024-01-03T17:09:17.538Z,10.1
2024-01-03T17:10:33.843Z,10.1
2024-01-03T17:11:49.140Z,10
2024-01-03T17:13:05.446Z,10.1
2024-01-03T17:14:21.739Z,10.1
2024-01-03T17:15:38.024Z,10
2024-01-03T17:16:54.315Z,10
2024-01-03T17:18:10.616Z,10
2024-01-03T17:19:26.916Z,10
2024-01-03T17:20:43.223Z,9.9
2024-01-03T17:21:59.494Z,10
2024-01-03T17:23:15.783Z,10
2024-01-03T17:24:32.079Z,10
2024-01-03T17:25:48.378Z,10
2024-01-03T17:27:04.677Z,10
2024-01-03T17:28:19.993Z,9.9
2024-01-03T17:29:36.279Z,9.9